sensor_id;sensor_type;location;lat;lon;timestamp;P1;durP1;ratioP1;P2;durP2;ratioP2
72797;SDS011;61084;55.816;37.036;2022-10-16T00:00:44;44.45;;;16.45;;
72797;SDS011;61084;55.816;37.036;2022-10-16T00:03:10;46.08;;;15.48;;
72797;SDS011;61084;55.816;37.036;2022-10-16T00:05:40;39.25;;;14.27;;
72797;SDS011;61084;55.816;37.036;2022-10-16T00:08:07;43.42;;;15.18;;
72797;SDS011;61084;55.816;37.036;2022-10-16T00:10:34;40.25;;;15.70;;
72797;SDS011;61084;55.816;37.036;2022-10-16T00:13:00;40.80;;;14.57;;
72797;SDS011;61084;55.816;37.036;2022-10-16T00:15:26;20.88;;;10.13;;
72797;SDS011;61084;55.816;37.036;2022-10-16T00:17:52;33.00;;;11.15;;
72797;SDS011;61084;55.816;37.036;2022-10-16T00:20:18;28.40;;;10.10;;
72797;SDS011;61084;55.816;37.036;2022-10-16T00:23:03;21.00;;;9.73;;
72797;SDS011;61084;55.816;37.036;2022-10-16T00:25:30;23.88;;;8.75;;
72797;SDS011;61084;55.816;37.036;2022-10-16T00:27:58;24.77;;;9.10;;
72797;SDS011;61084;55.816;37.036;2022-10-16T00:32:53;25.45;;;11.02;;
72797;SDS011;61084;55.816;37.036;2022-10-16T00:35:19;32.50;;;11.20;;
72797;SDS011;61084;55.816;37.036;2022-10-16T00:37:44;32.92;;;11.77;;
72797;SDS011;61084;55.816;37.036;2022-10-16T00:40:10;26.83;;;10.60;;
72797;SDS011;61084;55.816;37.036;2022-10-16T00:42:36;27.67;;;10.00;;
72797;SDS011;61084;55.816;37.036;2022-10-16T00:45:02;23.10;;;9.50;;
72797;SDS011;61084;55.816;37.036;2022-10-16T00:50:08;18.55;;;9.05;;
72797;SDS011;61084;55.816;37.036;2022-10-16T00:52:37;25.60;;;8.32;;
72797;SDS011;61084;55.816;37.036;2022-10-16T00:55:08;22.63;;;9.57;;
72797;SDS011;61084;55.816;37.036;2022-10-16T00:57:35;20.80;;;9.80;;
72797;SDS011;61084;55.816;37.036;2022-10-16T01:02:30;26.05;;;10.15;;
72797;SDS011;61084;55.816;37.036;2022-10-16T01:04:56;22.48;;;9.02;;
72797;SDS011;61084;55.816;37.036;2022-10-16T01:15:18;17.70;;;8.35;;
72797;SDS011;61084;55.816;37.036;2022-10-16T01:20:27;17.23;;;7.88;;
72797;SDS011;61084;55.816;37.036;2022-10-16T01:28:26;14.07;;;7.30;;
72797;SDS011;61084;55.816;37.036;2022-10-16T01:30:59;19.05;;;7.03;;
72797;SDS011;61084;55.816;37.036;2022-10-16T01:33:40;16.92;;;7.40;;
72797;SDS011;61084;55.816;37.036;2022-10-16T01:36:16;17.75;;;7.30;;
72797;SDS011;61084;55.816;37.036;2022-10-16T01:41:15;19.20;;;8.85;;
72797;SDS011;61084;55.816;37.036;2022-10-16T01:46:46;34.65;;;13.43;;
72797;SDS011;61084;55.816;37.036;2022-10-16T01:49:15;100.65;;;33.25;;
72797;SDS011;61084;55.816;37.036;2022-10-16T01:54:10;53.38;;;16.25;;
72797;SDS011;61084;55.816;37.036;2022-10-16T01:56:38;45.72;;;15.50;;
72797;SDS011;61084;55.816;37.036;2022-10-16T01:59:12;26.67;;;10.38;;
72797;SDS011;61084;55.816;37.036;2022-10-16T02:01:42;35.42;;;11.40;;
72797;SDS011;61084;55.816;37.036;2022-10-16T02:04:17;30.27;;;11.43;;
72797;SDS011;61084;55.816;37.036;2022-10-16T02:06:46;35.05;;;11.35;;
72797;SDS011;61084;55.816;37.036;2022-10-16T02:09:12;25.85;;;10.70;;
72797;SDS011;61084;55.816;37.036;2022-10-16T02:11:41;22.67;;;8.18;;
72797;SDS011;61084;55.816;37.036;2022-10-16T02:14:07;24.00;;;8.38;;
72797;SDS011;61084;55.816;37.036;2022-10-16T02:16:42;23.02;;;9.07;;
72797;SDS011;61084;55.816;37.036;2022-10-16T02:19:13;18.27;;;8.43;;
72797;SDS011;61084;55.816;37.036;2022-10-16T02:21:46;20.77;;;8.13;;
72797;SDS011;61084;55.816;37.036;2022-10-16T02:29:28;15.93;;;7.40;;
72797;SDS011;61084;55.816;37.036;2022-10-16T02:31:56;15.13;;;7.15;;
72797;SDS011;61084;55.816;37.036;2022-10-16T02:34:26;16.88;;;7.47;;
72797;SDS011;61084;55.816;37.036;2022-10-16T02:36:54;12.60;;;5.80;;
72797;SDS011;61084;55.816;37.036;2022-10-16T02:39:22;15.45;;;6.25;;
72797;SDS011;61084;55.816;37.036;2022-10-16T02:41:49;13.32;;;5.85;;
72797;SDS011;61084;55.816;37.036;2022-10-16T02:44:15;12.18;;;5.93;;
72797;SDS011;61084;55.816;37.036;2022-10-16T02:46:41;11.82;;;6.03;;
72797;SDS011;61084;55.816;37.036;2022-10-16T02:49:06;12.55;;;5.53;;
72797;SDS011;61084;55.816;37.036;2022-10-16T02:51:32;16.48;;;6.10;;
72797;SDS011;61084;55.816;37.036;2022-10-16T02:53:58;10.85;;;5.57;;
72797;SDS011;61084;55.816;37.036;2022-10-16T02:56:23;14.55;;;6.18;;
72797;SDS011;61084;55.816;37.036;2022-10-16T02:58:49;14.88;;;5.75;;
72797;SDS011;61084;55.816;37.036;2022-10-16T03:01:15;14.52;;;5.72;;
72797;SDS011;61084;55.816;37.036;2022-10-16T03:03:42;10.70;;;5.43;;
72797;SDS011;61084;55.816;37.036;2022-10-16T03:06:08;12.10;;;5.32;;
72797;SDS011;61084;55.816;37.036;2022-10-16T03:08:34;10.45;;;5.15;;
72797;SDS011;61084;55.816;37.036;2022-10-16T03:10:59;11.60;;;6.00;;
72797;SDS011;61084;55.816;37.036;2022-10-16T03:13:27;16.27;;;5.32;;
72797;SDS011;61084;55.816;37.036;2022-10-16T03:15:53;11.57;;;6.60;;
72797;SDS011;61084;55.816;37.036;2022-10-16T03:18:19;11.73;;;5.22;;
72797;SDS011;61084;55.816;37.036;2022-10-16T03:20:45;13.57;;;5.38;;
72797;SDS011;61084;55.816;37.036;2022-10-16T03:23:11;13.45;;;5.53;;
72797;SDS011;61084;55.816;37.036;2022-10-16T03:25:37;10.68;;;5.35;;
72797;SDS011;61084;55.816;37.036;2022-10-16T03:28:02;10.48;;;5.30;;
72797;SDS011;61084;55.816;37.036;2022-10-16T03:30:29;11.02;;;5.18;;
72797;SDS011;61084;55.816;37.036;2022-10-16T03:32:55;13.18;;;5.68;;
72797;SDS011;61084;55.816;37.036;2022-10-16T03:35:21;16.15;;;7.00;;
72797;SDS011;61084;55.816;37.036;2022-10-16T03:37:48;28.17;;;9.15;;
72797;SDS011;61084;55.816;37.036;2022-10-16T03:40:14;33.00;;;12.45;;
72797;SDS011;61084;55.816;37.036;2022-10-16T03:42:41;30.30;;;12.70;;
72797;SDS011;61084;55.816;37.036;2022-10-16T03:45:07;28.25;;;10.13;;
72797;SDS011;61084;55.816;37.036;2022-10-16T03:47:33;21.17;;;8.23;;
72797;SDS011;61084;55.816;37.036;2022-10-16T03:49:59;13.23;;;5.28;;
72797;SDS011;61084;55.816;37.036;2022-10-16T03:52:50;14.80;;;6.45;;
72797;SDS011;61084;55.816;37.036;2022-10-16T03:55:16;17.25;;;6.35;;
72797;SDS011;61084;55.816;37.036;2022-10-16T03:57:42;11.95;;;5.55;;
72797;SDS011;61084;55.816;37.036;2022-10-16T04:00:08;13.57;;;5.13;;
72797;SDS011;61084;55.816;37.036;2022-10-16T04:02:38;13.60;;;5.63;;
72797;SDS011;61084;55.816;37.036;2022-10-16T04:05:04;10.52;;;4.93;;
72797;SDS011;61084;55.816;37.036;2022-10-16T04:07:30;12.02;;;5.45;;
72797;SDS011;61084;55.816;37.036;2022-10-16T04:09:56;13.30;;;5.13;;
72797;SDS011;61084;55.816;37.036;2022-10-16T04:12:24;10.70;;;5.20;;
72797;SDS011;61084;55.816;37.036;2022-10-16T04:14:51;11.23;;;5.05;;
72797;SDS011;61084;55.816;37.036;2022-10-16T04:17:16;9.85;;;5.10;;
72797;SDS011;61084;55.816;37.036;2022-10-16T04:19:42;12.60;;;5.68;;
72797;SDS011;61084;55.816;37.036;2022-10-16T04:22:08;12.73;;;5.55;;
72797;SDS011;61084;55.816;37.036;2022-10-16T04:24:34;12.52;;;5.22;;
72797;SDS011;61084;55.816;37.036;2022-10-16T04:26:59;16.25;;;6.47;;
72797;SDS011;61084;55.816;37.036;2022-10-16T04:29:25;17.73;;;6.45;;
72797;SDS011;61084;55.816;37.036;2022-10-16T04:31:51;16.70;;;7.50;;
72797;SDS011;61084;55.816;37.036;2022-10-16T04:34:17;11.38;;;5.72;;
72797;SDS011;61084;55.816;37.036;2022-10-16T04:36:43;13.82;;;5.97;;
72797;SDS011;61084;55.816;37.036;2022-10-16T04:39:08;14.80;;;5.38;;
72797;SDS011;61084;55.816;37.036;2022-10-16T04:41:34;12.55;;;5.10;;
72797;SDS011;61084;55.816;37.036;2022-10-16T04:44:00;20.58;;;6.18;;
72797;SDS011;61084;55.816;37.036;2022-10-16T04:46:25;28.75;;;8.35;;
72797;SDS011;61084;55.816;37.036;2022-10-16T04:48:51;19.25;;;7.13;;
72797;SDS011;61084;55.816;37.036;2022-10-16T04:51:17;26.58;;;8.27;;
72797;SDS011;61084;55.816;37.036;2022-10-16T04:53:44;18.88;;;8.13;;
72797;SDS011;61084;55.816;37.036;2022-10-16T04:56:09;17.45;;;7.47;;
72797;SDS011;61084;55.816;37.036;2022-10-16T04:58:35;14.95;;;5.63;;
72797;SDS011;61084;55.816;37.036;2022-10-16T05:01:01;11.20;;;5.25;;
72797;SDS011;61084;55.816;37.036;2022-10-16T05:03:27;13.20;;;4.90;;
72797;SDS011;61084;55.816;37.036;2022-10-16T05:05:52;15.95;;;5.63;;
72797;SDS011;61084;55.816;37.036;2022-10-16T05:08:18;12.35;;;5.47;;
72797;SDS011;61084;55.816;37.036;2022-10-16T05:10:44;9.48;;;4.78;;
72797;SDS011;61084;55.816;37.036;2022-10-16T05:13:10;13.15;;;5.18;;
72797;SDS011;61084;55.816;37.036;2022-10-16T05:15:37;11.23;;;5.35;;
72797;SDS011;61084;55.816;37.036;2022-10-16T05:18:02;16.42;;;6.13;;
72797;SDS011;61084;55.816;37.036;2022-10-16T05:20:28;16.92;;;6.97;;
72797;SDS011;61084;55.816;37.036;2022-10-16T05:22:54;18.10;;;5.63;;
72797;SDS011;61084;55.816;37.036;2022-10-16T05:25:20;15.13;;;5.60;;
72797;SDS011;61084;55.816;37.036;2022-10-16T05:27:47;12.00;;;5.28;;
72797;SDS011;61084;55.816;37.036;2022-10-16T05:30:14;14.88;;;5.50;;
72797;SDS011;61084;55.816;37.036;2022-10-16T05:32:40;13.10;;;5.03;;
72797;SDS011;61084;55.816;37.036;2022-10-16T05:35:06;15.40;;;5.65;;
72797;SDS011;61084;55.816;37.036;2022-10-16T05:37:32;24.35;;;8.10;;
72797;SDS011;61084;55.816;37.036;2022-10-16T05:39:58;18.13;;;6.28;;
72797;SDS011;61084;55.816;37.036;2022-10-16T05:42:24;15.23;;;6.22;;
72797;SDS011;61084;55.816;37.036;2022-10-16T05:44:50;19.60;;;7.28;;
72797;SDS011;61084;55.816;37.036;2022-10-16T05:47:16;16.77;;;7.40;;
72797;SDS011;61084;55.816;37.036;2022-10-16T05:49:41;14.77;;;7.03;;
72797;SDS011;61084;55.816;37.036;2022-10-16T05:52:07;18.13;;;6.20;;
72797;SDS011;61084;55.816;37.036;2022-10-16T05:54:33;18.50;;;5.18;;
72797;SDS011;61084;55.816;37.036;2022-10-16T05:56:59;11.50;;;5.13;;
72797;SDS011;61084;55.816;37.036;2022-10-16T05:59:24;9.52;;;4.38;;
72797;SDS011;61084;55.816;37.036;2022-10-16T06:01:50;9.90;;;4.25;;
72797;SDS011;61084;55.816;37.036;2022-10-16T06:04:16;14.30;;;5.35;;
72797;SDS011;61084;55.816;37.036;2022-10-16T06:06:41;13.75;;;5.25;;
72797;SDS011;61084;55.816;37.036;2022-10-16T06:09:09;8.18;;;4.55;;
72797;SDS011;61084;55.816;37.036;2022-10-16T06:11:35;10.30;;;5.07;;
72797;SDS011;61084;55.816;37.036;2022-10-16T06:14:02;11.18;;;4.13;;
72797;SDS011;61084;55.816;37.036;2022-10-16T06:16:32;10.65;;;4.22;;
72797;SDS011;61084;55.816;37.036;2022-10-16T06:19:02;6.53;;;4.05;;
72797;SDS011;61084;55.816;37.036;2022-10-16T06:21:31;9.10;;;3.85;;
72797;SDS011;61084;55.816;37.036;2022-10-16T06:23:57;10.00;;;4.20;;
72797;SDS011;61084;55.816;37.036;2022-10-16T06:26:25;11.48;;;4.78;;
72797;SDS011;61084;55.816;37.036;2022-10-16T06:28:56;10.00;;;4.60;;
72797;SDS011;61084;55.816;37.036;2022-10-16T06:31:23;12.60;;;5.55;;
72797;SDS011;61084;55.816;37.036;2022-10-16T06:33:53;10.80;;;4.35;;
72797;SDS011;61084;55.816;37.036;2022-10-16T06:36:19;11.50;;;4.15;;
72797;SDS011;61084;55.816;37.036;2022-10-16T06:38:45;12.32;;;4.47;;
72797;SDS011;61084;55.816;37.036;2022-10-16T06:41:13;12.70;;;4.68;;
72797;SDS011;61084;55.816;37.036;2022-10-16T06:43:40;10.00;;;3.55;;
72797;SDS011;61084;55.816;37.036;2022-10-16T06:46:07;8.50;;;3.60;;
72797;SDS011;61084;55.816;37.036;2022-10-16T06:48:35;10.20;;;3.65;;
72797;SDS011;61084;55.816;37.036;2022-10-16T06:51:03;10.80;;;3.80;;
72797;SDS011;61084;55.816;37.036;2022-10-16T06:53:35;7.90;;;3.97;;
72797;SDS011;61084;55.816;37.036;2022-10-16T06:56:06;8.82;;;3.78;;
72797;SDS011;61084;55.816;37.036;2022-10-16T06:58:48;6.32;;;3.55;;
72797;SDS011;61084;55.816;37.036;2022-10-16T07:01:16;8.13;;;3.42;;
72797;SDS011;61084;55.816;37.036;2022-10-16T07:03:44;6.45;;;3.25;;
72797;SDS011;61084;55.816;37.036;2022-10-16T07:06:11;8.57;;;3.50;;
72797;SDS011;61084;55.816;37.036;2022-10-16T07:08:40;6.47;;;2.90;;
72797;SDS011;61084;55.816;37.036;2022-10-16T07:11:08;8.82;;;3.33;;
72797;SDS011;61084;55.816;37.036;2022-10-16T07:13:36;8.70;;;3.90;;
72797;SDS011;61084;55.816;37.036;2022-10-16T07:18:33;15.73;;;4.18;;
72797;SDS011;61084;55.816;37.036;2022-10-16T07:21:03;10.02;;;4.38;;
72797;SDS011;61084;55.816;37.036;2022-10-16T07:23:30;10.73;;;4.25;;
72797;SDS011;61084;55.816;37.036;2022-10-16T07:25:56;10.10;;;4.20;;
72797;SDS011;61084;55.816;37.036;2022-10-16T07:28:21;10.90;;;4.18;;
72797;SDS011;61084;55.816;37.036;2022-10-16T07:30:48;8.52;;;2.78;;
72797;SDS011;61084;55.816;37.036;2022-10-16T07:33:14;9.48;;;3.25;;
72797;SDS011;61084;55.816;37.036;2022-10-16T07:35:53;6.65;;;3.20;;
72797;SDS011;61084;55.816;37.036;2022-10-16T07:38:20;7.57;;;3.28;;
72797;SDS011;61084;55.816;37.036;2022-10-16T07:40:46;9.07;;;3.67;;
72797;SDS011;61084;55.816;37.036;2022-10-16T07:43:13;8.90;;;3.10;;
72797;SDS011;61084;55.816;37.036;2022-10-16T07:45:48;6.00;;;2.97;;
72797;SDS011;61084;55.816;37.036;2022-10-16T07:48:16;7.00;;;3.20;;
72797;SDS011;61084;55.816;37.036;2022-10-16T07:50:42;7.97;;;3.10;;
72797;SDS011;61084;55.816;37.036;2022-10-16T07:53:09;6.32;;;3.17;;
72797;SDS011;61084;55.816;37.036;2022-10-16T07:55:36;7.30;;;3.72;;
72797;SDS011;61084;55.816;37.036;2022-10-16T07:58:02;13.57;;;3.78;;
72797;SDS011;61084;55.816;37.036;2022-10-16T08:00:28;8.68;;;3.63;;
72797;SDS011;61084;55.816;37.036;2022-10-16T08:02:54;6.78;;;3.15;;
72797;SDS011;61084;55.816;37.036;2022-10-16T08:05:21;7.57;;;3.25;;
72797;SDS011;61084;55.816;37.036;2022-10-16T08:07:48;12.63;;;2.95;;
72797;SDS011;61084;55.816;37.036;2022-10-16T08:10:16;7.38;;;3.45;;
72797;SDS011;61084;55.816;37.036;2022-10-16T08:12:43;7.35;;;3.28;;
72797;SDS011;61084;55.816;37.036;2022-10-16T08:15:09;5.22;;;2.88;;
72797;SDS011;61084;55.816;37.036;2022-10-16T08:17:35;9.35;;;3.00;;
72797;SDS011;61084;55.816;37.036;2022-10-16T08:20:01;6.78;;;3.03;;
72797;SDS011;61084;55.816;37.036;2022-10-16T08:22:28;7.10;;;2.55;;
72797;SDS011;61084;55.816;37.036;2022-10-16T08:24:54;8.00;;;3.22;;
72797;SDS011;61084;55.816;37.036;2022-10-16T08:27:20;5.20;;;3.00;;
72797;SDS011;61084;55.816;37.036;2022-10-16T08:29:48;4.50;;;2.55;;
72797;SDS011;61084;55.816;37.036;2022-10-16T08:32:14;12.63;;;2.92;;
72797;SDS011;61084;55.816;37.036;2022-10-16T08:34:40;5.35;;;2.60;;
72797;SDS011;61084;55.816;37.036;2022-10-16T08:37:06;9.73;;;3.03;;
72797;SDS011;61084;55.816;37.036;2022-10-16T08:39:33;5.57;;;2.42;;
72797;SDS011;61084;55.816;37.036;2022-10-16T08:42:05;5.78;;;2.30;;
72797;SDS011;61084;55.816;37.036;2022-10-16T08:47:17;4.82;;;2.63;;
72797;SDS011;61084;55.816;37.036;2022-10-16T08:49:58;4.07;;;2.58;;
72797;SDS011;61084;55.816;37.036;2022-10-16T08:52:30;8.40;;;2.67;;
72797;SDS011;61084;55.816;37.036;2022-10-16T08:54:59;5.40;;;2.40;;
72797;SDS011;61084;55.816;37.036;2022-10-16T08:57:25;7.00;;;3.17;;
72797;SDS011;61084;55.816;37.036;2022-10-16T08:59:52;7.15;;;2.50;;
72797;SDS011;61084;55.816;37.036;2022-10-16T09:02:24;4.85;;;2.20;;
72797;SDS011;61084;55.816;37.036;2022-10-16T09:13:33;6.90;;;2.30;;
72797;SDS011;61084;55.816;37.036;2022-10-16T09:21:29;5.70;;;1.98;;
72797;SDS011;61084;55.816;37.036;2022-10-16T09:23:58;5.78;;;2.45;;
72797;SDS011;61084;55.816;37.036;2022-10-16T09:26:33;6.30;;;1.98;;
72797;SDS011;61084;55.816;37.036;2022-10-16T09:28:59;9.00;;;2.80;;
72797;SDS011;61084;55.816;37.036;2022-10-16T09:31:24;4.93;;;2.00;;
72797;SDS011;61084;55.816;37.036;2022-10-16T09:33:55;4.85;;;2.47;;
72797;SDS011;61084;55.816;37.036;2022-10-16T09:36:28;5.25;;;2.13;;
72797;SDS011;61084;55.816;37.036;2022-10-16T09:39:06;5.22;;;2.38;;
72797;SDS011;61084;55.816;37.036;2022-10-16T09:41:34;7.03;;;2.20;;
72797;SDS011;61084;55.816;37.036;2022-10-16T09:44:02;5.15;;;1.77;;
72797;SDS011;61084;55.816;37.036;2022-10-16T09:46:32;8.60;;;2.58;;
72797;SDS011;61084;55.816;37.036;2022-10-16T09:49:05;4.75;;;2.33;;
72797;SDS011;61084;55.816;37.036;2022-10-16T09:52:03;4.95;;;2.63;;
72797;SDS011;61084;55.816;37.036;2022-10-16T09:54:48;8.50;;;2.65;;
72797;SDS011;61084;55.816;37.036;2022-10-16T09:57:18;6.28;;;2.30;;
72797;SDS011;61084;55.816;37.036;2022-10-16T09:59:48;5.75;;;2.50;;
72797;SDS011;61084;55.816;37.036;2022-10-16T10:02:37;6.93;;;2.42;;
72797;SDS011;61084;55.816;37.036;2022-10-16T10:05:06;9.75;;;2.40;;
72797;SDS011;61084;55.816;37.036;2022-10-16T10:07:45;8.55;;;3.22;;
72797;SDS011;61084;55.816;37.036;2022-10-16T10:10:22;5.05;;;2.20;;
72797;SDS011;61084;55.816;37.036;2022-10-16T10:12:56;8.85;;;2.67;;
72797;SDS011;61084;55.816;37.036;2022-10-16T10:15:23;8.23;;;2.80;;
72797;SDS011;61084;55.816;37.036;2022-10-16T10:17:53;4.75;;;1.95;;
72797;SDS011;61084;55.816;37.036;2022-10-16T10:20:27;6.65;;;2.28;;
72797;SDS011;61084;55.816;37.036;2022-10-16T10:22:56;4.72;;;2.10;;
72797;SDS011;61084;55.816;37.036;2022-10-16T10:25:25;11.25;;;2.42;;
72797;SDS011;61084;55.816;37.036;2022-10-16T10:27:56;5.00;;;2.50;;
72797;SDS011;61084;55.816;37.036;2022-10-16T10:36:05;4.88;;;2.28;;
72797;SDS011;61084;55.816;37.036;2022-10-16T10:47:20;8.50;;;2.60;;
72797;SDS011;61084;55.816;37.036;2022-10-16T10:53:11;4.50;;;2.20;;
72797;SDS011;61084;55.816;37.036;2022-10-16T11:06:36;11.98;;;6.20;;
72797;SDS011;61084;55.816;37.036;2022-10-16T11:09:17;7.50;;;4.10;;
72797;SDS011;61084;55.816;37.036;2022-10-16T11:14:38;8.73;;;2.45;;
72797;SDS011;61084;55.816;37.036;2022-10-16T11:17:12;10.25;;;3.35;;
72797;SDS011;61084;55.816;37.036;2022-10-16T11:30:19;6.22;;;2.45;;
72797;SDS011;61084;55.816;37.036;2022-10-16T11:35:53;5.15;;;2.25;;
72797;SDS011;61084;55.816;37.036;2022-10-16T11:38:38;5.78;;;2.45;;
72797;SDS011;61084;55.816;37.036;2022-10-16T11:44:14;5.45;;;2.38;;
72797;SDS011;61084;55.816;37.036;2022-10-16T11:46:43;5.03;;;2.30;;
72797;SDS011;61084;55.816;37.036;2022-10-16T11:49:20;4.97;;;2.72;;
72797;SDS011;61084;55.816;37.036;2022-10-16T11:54:52;5.47;;;2.47;;
72797;SDS011;61084;55.816;37.036;2022-10-16T11:57:24;4.35;;;2.15;;
72797;SDS011;61084;55.816;37.036;2022-10-16T11:59:58;6.82;;;3.25;;
72797;SDS011;61084;55.816;37.036;2022-10-16T12:03:34;6.32;;;2.03;;
72797;SDS011;61084;55.816;37.036;2022-10-16T12:06:15;6.40;;;2.10;;
72797;SDS011;61084;55.816;37.036;2022-10-16T12:09:03;7.00;;;2.38;;
72797;SDS011;61084;55.816;37.036;2022-10-16T12:11:34;8.38;;;3.78;;
72797;SDS011;61084;55.816;37.036;2022-10-16T12:17:01;10.88;;;3.17;;
72797;SDS011;61084;55.816;37.036;2022-10-16T12:19:58;13.85;;;5.80;;
72797;SDS011;61084;55.816;37.036;2022-10-16T12:22:28;8.05;;;2.65;;
72797;SDS011;61084;55.816;37.036;2022-10-16T12:24:59;8.38;;;2.45;;
72797;SDS011;61084;55.816;37.036;2022-10-16T12:27:30;6.57;;;2.70;;
72797;SDS011;61084;55.816;37.036;2022-10-16T12:30:04;7.30;;;2.80;;
72797;SDS011;61084;55.816;37.036;2022-10-16T12:32:54;4.35;;;2.58;;
72797;SDS011;61084;55.816;37.036;2022-10-16T12:35:29;8.50;;;2.00;;
72797;SDS011;61084;55.816;37.036;2022-10-16T12:38:05;5.38;;;2.53;;
72797;SDS011;61084;55.816;37.036;2022-10-16T12:40:33;4.10;;;1.90;;
72797;SDS011;61084;55.816;37.036;2022-10-16T12:43:41;4.53;;;2.50;;
72797;SDS011;61084;55.816;37.036;2022-10-16T12:48:43;5.38;;;2.30;;
72797;SDS011;61084;55.816;37.036;2022-10-16T12:51:22;5.70;;;2.90;;
72797;SDS011;61084;55.816;37.036;2022-10-16T13:00:00;8.38;;;2.30;;
72797;SDS011;61084;55.816;37.036;2022-10-16T13:05:50;10.50;;;4.05;;
72797;SDS011;61084;55.816;37.036;2022-10-16T13:14:36;8.38;;;3.15;;
72797;SDS011;61084;55.816;37.036;2022-10-16T13:17:40;6.30;;;2.60;;
72797;SDS011;61084;55.816;37.036;2022-10-16T13:28:21;6.05;;;2.25;;
72797;SDS011;61084;55.816;37.036;2022-10-16T13:30:58;9.65;;;2.58;;
72797;SDS011;61084;55.816;37.036;2022-10-16T13:33:36;3.90;;;1.83;;
72797;SDS011;61084;55.816;37.036;2022-10-16T13:36:30;4.95;;;2.33;;
72797;SDS011;61084;55.816;37.036;2022-10-16T13:42:07;6.63;;;2.40;;
72797;SDS011;61084;55.816;37.036;2022-10-16T13:44:49;6.15;;;2.30;;
72797;SDS011;61084;55.816;37.036;2022-10-16T13:47:29;4.03;;;2.33;;
72797;SDS011;61084;55.816;37.036;2022-10-16T13:50:02;6.43;;;2.53;;
72797;SDS011;61084;55.816;37.036;2022-10-16T13:52:30;5.30;;;2.30;;
72797;SDS011;61084;55.816;37.036;2022-10-16T13:54:58;6.00;;;2.13;;
72797;SDS011;61084;55.816;37.036;2022-10-16T13:57:24;7.00;;;3.00;;
72797;SDS011;61084;55.816;37.036;2022-10-16T13:59:51;12.07;;;3.22;;
72797;SDS011;61084;55.816;37.036;2022-10-16T14:02:26;6.30;;;2.20;;
72797;SDS011;61084;55.816;37.036;2022-10-16T14:05:01;8.55;;;3.00;;
72797;SDS011;61084;55.816;37.036;2022-10-16T14:07:31;4.68;;;2.40;;
72797;SDS011;61084;55.816;37.036;2022-10-16T14:10:05;4.70;;;2.20;;
72797;SDS011;61084;55.816;37.036;2022-10-16T14:13:00;5.40;;;2.58;;
72797;SDS011;61084;55.816;37.036;2022-10-16T14:15:30;4.95;;;2.40;;
72797;SDS011;61084;55.816;37.036;2022-10-16T14:17:58;6.65;;;2.50;;
72797;SDS011;61084;55.816;37.036;2022-10-16T14:20:33;6.85;;;3.90;;
72797;SDS011;61084;55.816;37.036;2022-10-16T14:23:16;6.78;;;2.50;;
72797;SDS011;61084;55.816;37.036;2022-10-16T14:26:11;6.63;;;2.65;;
72797;SDS011;61084;55.816;37.036;2022-10-16T14:28:47;8.10;;;2.55;;
72797;SDS011;61084;55.816;37.036;2022-10-16T14:31:35;5.18;;;2.50;;
72797;SDS011;61084;55.816;37.036;2022-10-16T14:34:02;10.15;;;2.53;;
72797;SDS011;61084;55.816;37.036;2022-10-16T14:36:40;5.65;;;2.40;;
72797;SDS011;61084;55.816;37.036;2022-10-16T14:39:13;5.22;;;2.78;;
72797;SDS011;61084;55.816;37.036;2022-10-16T14:41:45;7.15;;;2.20;;
72797;SDS011;61084;55.816;37.036;2022-10-16T14:44:19;10.35;;;2.60;;
72797;SDS011;61084;55.816;37.036;2022-10-16T14:46:54;6.88;;;2.92;;
72797;SDS011;61084;55.816;37.036;2022-10-16T14:49:20;9.60;;;3.20;;
72797;SDS011;61084;55.816;37.036;2022-10-16T14:51:48;8.10;;;3.25;;
72797;SDS011;61084;55.816;37.036;2022-10-16T14:54:15;6.35;;;2.78;;
72797;SDS011;61084;55.816;37.036;2022-10-16T14:56:46;8.38;;;3.13;;
72797;SDS011;61084;55.816;37.036;2022-10-16T15:02:34;7.10;;;3.53;;
72797;SDS011;61084;55.816;37.036;2022-10-16T15:05:13;8.48;;;3.78;;
72797;SDS011;61084;55.816;37.036;2022-10-16T15:07:50;9.48;;;4.13;;
72797;SDS011;61084;55.816;37.036;2022-10-16T15:10:20;7.10;;;3.45;;
72797;SDS011;61084;55.816;37.036;2022-10-16T15:12:50;10.27;;;3.53;;
72797;SDS011;61084;55.816;37.036;2022-10-16T15:17:51;9.45;;;4.03;;
72797;SDS011;61084;55.816;37.036;2022-10-16T15:20:22;7.93;;;3.70;;
72797;SDS011;61084;55.816;37.036;2022-10-16T15:22:49;11.20;;;4.30;;
72797;SDS011;61084;55.816;37.036;2022-10-16T15:25:25;13.35;;;4.22;;
72797;SDS011;61084;55.816;37.036;2022-10-16T15:27:56;9.55;;;4.00;;
72797;SDS011;61084;55.816;37.036;2022-10-16T15:30:22;11.10;;;4.55;;
72797;SDS011;61084;55.816;37.036;2022-10-16T15:32:48;9.85;;;4.20;;
72797;SDS011;61084;55.816;37.036;2022-10-16T15:37:41;14.25;;;3.47;;
72797;SDS011;61084;55.816;37.036;2022-10-16T15:40:08;8.43;;;4.03;;
72797;SDS011;61084;55.816;37.036;2022-10-16T15:42:35;9.52;;;3.67;;
72797;SDS011;61084;55.816;37.036;2022-10-16T15:45:03;8.07;;;4.18;;
72797;SDS011;61084;55.816;37.036;2022-10-16T15:47:29;11.82;;;5.15;;
72797;SDS011;61084;55.816;37.036;2022-10-16T15:49:55;13.90;;;4.70;;
72797;SDS011;61084;55.816;37.036;2022-10-16T15:52:21;14.80;;;5.53;;
72797;SDS011;61084;55.816;37.036;2022-10-16T15:54:46;15.00;;;4.60;;
72797;SDS011;61084;55.816;37.036;2022-10-16T15:57:12;16.05;;;4.47;;
72797;SDS011;61084;55.816;37.036;2022-10-16T15:59:38;11.98;;;3.63;;
72797;SDS011;61084;55.816;37.036;2022-10-16T16:02:03;12.90;;;4.18;;
72797;SDS011;61084;55.816;37.036;2022-10-16T16:04:29;12.32;;;5.30;;
72797;SDS011;61084;55.816;37.036;2022-10-16T16:06:59;13.60;;;5.57;;
72797;SDS011;61084;55.816;37.036;2022-10-16T16:09:33;11.32;;;5.32;;
72797;SDS011;61084;55.816;37.036;2022-10-16T16:11:59;11.57;;;4.70;;
72797;SDS011;61084;55.816;37.036;2022-10-16T16:14:26;12.25;;;5.22;;
72797;SDS011;61084;55.816;37.036;2022-10-16T16:19:23;13.95;;;5.22;;
72797;SDS011;61084;55.816;37.036;2022-10-16T16:21:54;15.07;;;5.57;;
72797;SDS011;61084;55.816;37.036;2022-10-16T16:24:20;14.20;;;6.57;;
72797;SDS011;61084;55.816;37.036;2022-10-16T16:26:46;15.98;;;6.03;;
72797;SDS011;61084;55.816;37.036;2022-10-16T16:29:12;14.50;;;6.60;;
72797;SDS011;61084;55.816;37.036;2022-10-16T16:31:40;19.23;;;7.15;;
72797;SDS011;61084;55.816;37.036;2022-10-16T16:34:07;25.00;;;6.65;;
72797;SDS011;61084;55.816;37.036;2022-10-16T16:36:33;22.67;;;6.53;;
72797;SDS011;61084;55.816;37.036;2022-10-16T16:39:00;17.95;;;6.75;;
72797;SDS011;61084;55.816;37.036;2022-10-16T16:41:27;17.00;;;6.28;;
72797;SDS011;61084;55.816;37.036;2022-10-16T16:43:55;14.60;;;6.25;;
72797;SDS011;61084;55.816;37.036;2022-10-16T16:46:26;24.85;;;7.50;;
72797;SDS011;61084;55.816;37.036;2022-10-16T16:48:52;17.60;;;6.18;;
72797;SDS011;61084;55.816;37.036;2022-10-16T16:51:21;19.33;;;6.15;;
72797;SDS011;61084;55.816;37.036;2022-10-16T16:53:48;14.50;;;6.10;;
72797;SDS011;61084;55.816;37.036;2022-10-16T16:56:15;15.32;;;6.93;;
72797;SDS011;61084;55.816;37.036;2022-10-16T16:58:44;13.52;;;5.28;;
72797;SDS011;61084;55.816;37.036;2022-10-16T17:01:10;15.70;;;5.72;;
72797;SDS011;61084;55.816;37.036;2022-10-16T17:03:37;12.93;;;5.78;;
72797;SDS011;61084;55.816;37.036;2022-10-16T17:06:04;11.75;;;5.95;;
72797;SDS011;61084;55.816;37.036;2022-10-16T17:08:34;13.32;;;6.25;;
72797;SDS011;61084;55.816;37.036;2022-10-16T17:11:00;13.82;;;5.70;;